Time;durP1;ratioP1;P1;durP2;ratioP2;P2;SDS_P1;SDS_P2;PMS_P1;PMS_P2;Temp;Humidity;BMP_temperature;BMP_pressure;BME280_temperature;BME280_humidity;BME280_pressure;Samples;Min_cycle;Max_cycle;Signal;HPM_P1;HPM_P2
2021/08/03 00:00:23;;;;;;;5.15;1.90;;;23.40;78.70;;;;;;4970047;28;20301;-75
2021/08/03 00:02:51;;;;;;;4.97;2.00;;;23.40;80.20;;;;;;4972075;28;20683;-75
2021/08/03 00:05:23;;;;;;;3.38;1.30;;;23.40;80.20;;;;;;4963203;28;20198;-75
2021/08/03 00:07:56;;;;;;;5.75;1.65;;;23.30;80.30;;;;;;4958277;28;20292;-76
2021/08/03 00:10:23;;;;;;;3.20;1.73;;;23.30;79.70;;;;;;4968976;28;20600;-76
2021/08/03 00:12:51;;;;;;;2.30;1.85;;;23.30;79.10;;;;;;4970340;28;20182;-75
2021/08/03 00:15:23;;;;;;;4.68;1.83;;;23.30;79.80;;;;;;4971349;28;20841;-75
2021/08/03 00:17:53;;;;;;;1.77;1.35;;;23.30;79.20;;;;;;4971463;28;20761;-75
2021/08/03 00:20:20;;;;;;;3.33;1.70;;;23.30;78.90;;;;;;4967053;28;20190;-75
2021/08/03 00:22:47;;;;;;;2.08;1.80;;;23.30;79.50;;;;;;4968791;28;20197;-75
2021/08/03 00:25:13;;;;;;;2.08;1.60;;;23.30;78.00;;;;;;4966710;28;20249;-75
2021/08/03 00:27:41;;;;;;;1.95;1.83;;;23.30;78.50;;;;;;4968093;28;20213;-75
2021/08/03 00:30:08;;;;;;;3.63;1.65;;;23.30;79.60;;;;;;4968030;28;20278;-75
2021/08/03 00:32:35;;;;;;;3.25;1.52;;;23.30;79.60;;;;;;4961014;28;20641;-75
2021/08/03 00:35:00;;;;;;;1.52;1.42;;;23.20;78.60;;;;;;4969163;28;20192;-75
2021/08/03 00:37:26;;;;;;;2.80;1.45;;;23.20;80.20;;;;;;4957818;28;20582;-75
2021/08/03 00:39:51;;;;;;;1.65;1.42;;;23.20;79.30;;;;;;4972534;28;20213;-76
2021/08/03 00:42:17;;;;;;;3.00;1.27;;;23.20;79.80;;;;;;4970873;28;20646;-76
2021/08/03 00:44:49;;;;;;;1.67;1.50;;;23.20;80.20;;;;;;4967657;28;21469;-76
2021/08/03 00:47:16;;;;;;;3.40;1.23;;;23.10;79.50;;;;;;4954273;28;20218;-76
2021/08/03 00:49:42;;;;;;;4.93;1.60;;;23.10;80.00;;;;;;4971376;28;20200;-75
2021/08/03 00:52:10;;;;;;;1.67;1.58;;;23.10;80.10;;;;;;4970195;28;20226;-75
2021/08/03 00:54:36;;;;;;;9.35;1.65;;;23.00;80.70;;;;;;4970124;28;20679;-75
2021/08/03 00:57:02;;;;;;;2.28;1.83;;;23.00;79.70;;;;;;4970362;28;20187;-75
2021/08/03 00:59:28;;;;;;;2.47;1.25;;;23.00;80.30;;;;;;4969533;28;20202;-75
2021/08/03 01:01:55;;;;;;;2.00;1.80;;;23.00;79.60;;;;;;4969134;28;20627;-75
2021/08/03 01:04:21;;;;;;;2.55;1.67;;;23.00;79.90;;;;;;4968594;28;20645;-75
2021/08/03 01:07:35;;;;;;;5.22;1.90;;;23.00;80.20;;;;;;4964967;28;20206;-75
2021/08/03 01:10:19;;;;;;;2.90;1.42;;;22.90;81.00;;;;;;4959512;28;20241;-75
2021/08/03 01:13:06;;;;;;;1.95;1.40;;;22.90;80.90;;;;;;4964987;28;20939;-75
2021/08/03 01:16:03;;;;;;;3.63;1.48;;;22.90;81.00;;;;;;4967278;28;20190;-75
2021/08/03 01:19:04;;;;;;;5.53;1.50;;;22.80;80.40;;;;;;4965688;28;20204;-75
2021/08/03 01:21:49;;;;;;;1.48;1.48;;;22.80;81.40;;;;;;4902354;29;20296;-75
2021/08/03 01:24:45;;;;;;;1.63;1.40;;;22.80;80.80;;;;;;4900817;29;20212;-75
2021/08/03 01:27:17;;;;;;;1.35;1.23;;;22.80;80.60;;;;;;4907968;29;20714;-75
2021/08/03 01:29:44;;;;;;;3.58;1.58;;;22.80;80.90;;;;;;4909639;29;20209;-75
2021/08/03 01:32:11;;;;;;;2.78;1.40;;;22.80;80.60;;;;;;4909667;29;20562;-75
2021/08/03 01:34:41;;;;;;;3.22;1.40;;;22.70;80.10;;;;;;4907304;29;20192;-76
2021/08/03 01:37:08;;;;;;;1.20;1.20;;;22.70;80.10;;;;;;4910160;29;21053;-75
2021/08/03 01:39:39;;;;;;;7.10;1.65;;;22.70;80.80;;;;;;4908434;29;20245;-75
2021/08/03 01:42:08;;;;;;;3.72;1.25;;;22.70;80.70;;;;;;4908821;29;20267;-75
2021/08/03 01:44:36;;;;;;;2.58;1.60;;;22.60;79.40;;;;;;4907508;29;20191;-75
2021/08/03 01:47:04;;;;;;;2.13;1.45;;;22.60;79.60;;;;;;4909410;29;20223;-75
2021/08/03 01:49:35;;;;;;;1.70;1.70;;;22.60;79.90;;;;;;4908439;29;20750;-75
2021/08/03 01:52:03;;;;;;;1.35;1.08;;;22.60;81.20;;;;;;4903605;29;20207;-75
2021/08/03 01:54:30;;;;;;;1.55;1.45;;;22.60;80.20;;;;;;4912178;28;20191;-75
2021/08/03 01:56:56;;;;;;;2.08;1.13;;;22.60;80.10;;;;;;4968816;28;20193;-75
2021/08/03 01:59:23;;;;;;;2.25;1.40;;;22.50;80.50;;;;;;4966770;28;20302;-75
2021/08/03 02:01:51;;;;;;;1.50;1.38;;;22.50;80.30;;;;;;4963550;28;20187;-75
2021/08/03 02:04:19;;;;;;;2.60;1.40;;;22.50;80.20;;;;;;4966935;28;20193;-75
2021/08/03 02:06:46;;;;;;;1.27;1.17;;;22.50;79.90;;;;;;4969477;28;20997;-75
2021/08/03 02:09:14;;;;;;;1.98;1.77;;;22.50;80.10;;;;;;4962916;28;20210;-75
2021/08/03 02:11:40;;;;;;;1.50;1.40;;;22.50;80.30;;;;;;4967630;28;20194;-75
2021/08/03 02:14:06;;;;;;;1.60;1.50;;;22.50;80.50;;;;;;4962005;28;20584;-75
2021/08/03 02:16:33;;;;;;;5.55;1.92;;;22.50;80.30;;;;;;4967508;28;20194;-75
2021/08/03 02:18:59;;;;;;;1.52;1.50;;;22.50;79.80;;;;;;4965666;28;20294;-75
2021/08/03 02:21:25;;;;;;;2.38;1.48;;;22.50;80.40;;;;;;4967019;28;20182;-75
2021/08/03 02:23:52;;;;;;;1.63;1.52;;;22.50;80.70;;;;;;4962849;28;20780;-75
2021/08/03 02:26:18;;;;;;;2.63;1.40;;;22.50;80.40;;;;;;4964876;28;20193;-75
2021/08/03 02:28:45;;;;;;;3.47;1.80;;;22.50;79.50;;;;;;4962764;28;20593;-75
2021/08/03 02:31:28;;;;;;;1.33;1.33;;;22.50;80.50;;;;;;4963499;28;20183;-75
2021/08/03 02:34:02;;;;;;;3.90;1.65;;;22.50;80.30;;;;;;4966561;28;20580;-75
2021/08/03 02:36:29;;;;;;;10.82;1.85;;;22.50;79.00;;;;;;4968873;28;20194;-75
2021/08/03 02:39:00;;;;;;;4.45;1.50;;;22.50;80.40;;;;;;4968059;28;20734;-75
2021/08/03 02:41:29;;;;;;;1.65;1.65;;;22.50;80.60;;;;;;4960020;28;20324;-75
2021/08/03 02:43:56;;;;;;;3.30;1.73;;;22.50;79.70;;;;;;4966654;28;20194;-75
2021/08/03 02:46:24;;;;;;;1.45;1.35;;;22.50;79.70;;;;;;4968267;28;20240;-75
2021/08/03 02:49:07;;;;;;;1.50;1.50;;;22.50;80.00;;;;;;4967223;28;20940;-74
2021/08/03 02:51:37;;;;;;;1.85;1.20;;;22.50;79.80;;;;;;4968085;28;20190;-74
2021/08/03 02:54:15;;;;;;;2.80;1.60;;;22.40;78.80;;;;;;4965039;28;20645;-75
2021/08/03 02:56:41;;;;;;;1.55;1.45;;;22.40;79.70;;;;;;4968262;28;20181;-74
2021/08/03 02:59:10;;;;;;;2.08;1.98;;;22.40;79.40;;;;;;4966380;28;20210;-75
2021/08/03 03:01:40;;;;;;;1.85;1.75;;;22.40;79.40;;;;;;4966897;28;20194;-75
2021/08/03 03:04:21;;;;;;;1.80;1.35;;;22.40;79.70;;;;;;4966849;28;20290;-75
2021/08/03 03:06:52;;;;;;;3.60;1.52;;;22.40;80.20;;;;;;4968200;28;20200;-75
2021/08/03 03:09:24;;;;;;;2.03;1.38;;;22.40;80.20;;;;;;4965633;28;20232;-75
2021/08/03 03:11:56;;;;;;;1.42;1.42;;;22.30;79.60;;;;;;4964978;28;20186;-76
2021/08/03 03:14:24;;;;;;;1.83;1.70;;;22.30;78.90;;;;;;4969399;28;20244;-76
2021/08/03 03:16:54;;;;;;;2.63;1.77;;;22.30;79.80;;;;;;4968834;28;20186;-75
2021/08/03 03:19:22;;;;;;;1.63;1.58;;;22.30;79.30;;;;;;4964072;28;20276;-76
2021/08/03 03:21:50;;;;;;;6.63;1.73;;;22.30;79.40;;;;;;4972719;28;20270;-75
2021/08/03 03:24:16;;;;;;;3.70;1.30;;;22.30;79.00;;;;;;4964393;28;20607;-75
2021/08/03 03:26:44;;;;;;;4.07;1.40;;;22.30;78.80;;;;;;4974080;28;20607;-75
2021/08/03 03:29:11;;;;;;;2.42;1.65;;;22.30;79.20;;;;;;4973688;28;20265;-75
2021/08/03 03:31:39;;;;;;;2.92;1.50;;;22.30;79.50;;;;;;4975650;28;20281;-76
2021/08/03 03:34:07;;;;;;;1.90;1.80;;;22.30;80.10;;;;;;4972048;28;20190;-75
2021/08/03 03:36:35;;;;;;;1.42;1.42;;;22.30;79.10;;;;;;4971870;28;20220;-75
2021/08/03 03:39:03;;;;;;;1.73;1.63;;;22.30;79.90;;;;;;4967654;28;20269;-75
2021/08/03 03:41:31;;;;;;;1.70;1.60;;;22.30;79.50;;;;;;4972483;28;20178;-75
2021/08/03 03:43:57;;;;;;;1.85;1.48;;;22.30;79.10;;;;;;4973192;28;20210;-75
2021/08/03 03:46:30;;;;;;;2.08;1.77;;;22.30;79.30;;;;;;4970480;28;20696;-75
2021/08/03 03:49:06;;;;;;;2.20;2.05;;;22.30;78.50;;;;;;4968904;28;20183;-76
2021/08/03 03:51:37;;;;;;;1.85;1.75;;;22.30;78.60;;;;;;4976012;28;20189;-75
2021/08/03 03:54:05;;;;;;;1.85;1.58;;;22.30;78.60;;;;;;4978490;28;20191;-76
2021/08/03 03:56:40;;;;;;;1.55;1.45;;;22.40;79.00;;;;;;4983016;28;20182;-76
2021/08/03 03:59:06;;;;;;;1.85;1.75;;;22.40;79.30;;;;;;4983225;28;20280;-74
2021/08/03 04:01:32;;;;;;;1.77;1.67;;;22.40;79.10;;;;;;4972232;28;20635;-76
2021/08/03 04:04:03;;;;;;;2.20;1.77;;;22.40;79.10;;;;;;4972238;28;20278;-77
2021/08/03 04:06:32;;;;;;;3.25;1.85;;;22.40;80.40;;;;;;4971786;28;20186;-77
2021/08/03 04:08:57;;;;;;;3.40;1.80;;;22.40;80.30;;;;;;4969543;28;20201;-75
2021/08/03 04:11:23;;;;;;;6.93;1.92;;;22.40;80.00;;;;;;4972260;28;20190;-75
2021/08/03 04:13:50;;;;;;;1.73;1.67;;;22.40;79.80;;;;;;4964679;28;20198;-75
2021/08/03 04:16:16;;;;;;;1.63;1.60;;;22.50;79.20;;;;;;4966570;28;20178;-75
2021/08/03 04:18:42;;;;;;;2.38;1.60;;;22.50;78.90;;;;;;4967372;28;20178;-75
2021/08/03 04:21:08;;;;;;;2.15;1.60;;;22.50;79.10;;;;;;4965859;28;20229;-75
2021/08/03 04:23:34;;;;;;;4.75;1.50;;;22.60;79.10;;;;;;4972027;28;20193;-75
2021/08/03 04:26:00;;;;;;;3.22;1.58;;;22.60;78.60;;;;;;4971114;28;20309;-76
2021/08/03 04:28:26;;;;;;;3.83;1.52;;;22.60;80.00;;;;;;4969815;28;20222;-76
2021/08/03 04:30:52;;;;;;;2.90;1.77;;;22.70;79.30;;;;;;4969890;28;20222;-75
2021/08/03 04:33:19;;;;;;;2.15;1.60;;;22.60;79.60;;;;;;4967130;28;20215;-76
2021/08/03 04:35:45;;;;;;;4.38;1.92;;;22.70;79.60;;;;;;4966636;28;20190;-75
2021/08/03 04:38:11;;;;;;;3.05;1.60;;;22.70;79.30;;;;;;4970161;28;20186;-75
2021/08/03 04:40:36;;;;;;;1.90;1.65;;;22.70;79.00;;;;;;4968998;28;20186;-74
2021/08/03 04:43:02;;;;;;;3.40;1.77;;;22.70;78.20;;;;;;4966622;28;20194;-76
2021/08/03 04:45:28;;;;;;;1.60;1.60;;;22.80;78.40;;;;;;4970542;28;20260;-78
2021/08/03 04:47:54;;;;;;;1.40;1.40;;;22.80;78.20;;;;;;4969980;28;20280;-76
2021/08/03 04:50:24;;;;;;;2.05;1.50;;;22.90;78.70;;;;;;4965999;28;20242;-76
2021/08/03 04:52:50;;;;;;;1.85;1.83;;;22.90;78.40;;;;;;4970884;28;20700;-75
2021/08/03 04:55:16;;;;;;;1.85;1.65;;;22.90;79.30;;;;;;4966594;28;20197;-77
2021/08/03 04:57:42;;;;;;;1.83;1.67;;;22.90;78.10;;;;;;4969545;28;20230;-76
2021/08/03 05:00:10;;;;;;;1.80;1.70;;;23.00;78.20;;;;;;4968769;28;20553;-76
2021/08/03 05:02:36;;;;;;;1.73;1.67;;;23.00;77.50;;;;;;4967611;28;20191;-77
2021/08/03 05:05:05;;;;;;;2.05;1.73;;;23.00;77.40;;;;;;4969684;28;20218;-77
2021/08/03 05:07:31;;;;;;;1.98;1.98;;;23.10;77.10;;;;;;4967793;28;20210;-77
2021/08/03 05:10:02;;;;;;;1.33;1.30;;;23.10;77.00;;;;;;4963998;28;20227;-77
2021/08/03 05:12:30;;;;;;;3.88;1.95;;;23.10;77.00;;;;;;4968398;28;20192;-77
2021/08/03 05:15:00;;;;;;;1.25;1.13;;;23.10;78.40;;;;;;4969356;28;20261;-76
2021/08/03 05:17:27;;;;;;;2.88;1.42;;;23.10;77.90;;;;;;4969174;28;20186;-77
2021/08/03 05:19:52;;;;;;;1.80;1.70;;;23.10;78.00;;;;;;4971682;28;20661;-75
2021/08/03 05:22:18;;;;;;;1.83;1.70;;;23.10;76.80;;;;;;4970552;28;20183;-75
2021/08/03 05:24:44;;;;;;;2.15;2.05;;;23.20;78.30;;;;;;4969095;28;20265;-75
2021/08/03 05:27:09;;;;;;;1.83;1.73;;;23.20;77.40;;;;;;4968056;28;20230;-75
2021/08/03 05:29:35;;;;;;;1.48;1.38;;;23.30;77.20;;;;;;4969400;28;20245;-75
2021/08/03 05:32:01;;;;;;;1.58;1.48;;;23.30;78.00;;;;;;4968646;28;20202;-75
2021/08/03 05:34:26;;;;;;;1.65;1.55;;;23.30;77.00;;;;;;4968079;28;20189;-75
2021/08/03 05:36:52;;;;;;;2.40;1.60;;;23.30;76.90;;;;;;4969295;28;20241;-75
2021/08/03 05:39:18;;;;;;;1.45;1.35;;;23.30;78.00;;;;;;4967021;28;20609;-75
2021/08/03 05:41:43;;;;;;;1.60;1.50;;;23.30;77.30;;;;;;4967945;28;20186;-75
2021/08/03 05:44:09;;;;;;;1.48;1.40;;;23.30;77.20;;;;;;4967231;28;20694;-73
2021/08/03 05:46:34;;;;;;;1.38;1.38;;;23.30;77.00;;;;;;4965608;28;20196;-76
2021/08/03 05:49:02;;;;;;;1.73;1.63;;;23.40;77.30;;;;;;4967395;28;20194;-76
2021/08/03 05:51:28;;;;;;;1.50;1.40;;;23.40;76.50;;;;;;4959208;28;20179;-74
2021/08/03 05:53:53;;;;;;;1.73;1.55;;;23.50;77.30;;;;;;4961031;28;20182;-75
2021/08/03 05:56:19;;;;;;;3.70;1.50;;;23.50;76.70;;;;;;4965445;28;20190;-76
2021/08/03 05:58:44;;;;;;;2.17;1.98;;;23.50;76.20;;;;;;4964686;28;20195;-76
2021/08/03 06:01:10;;;;;;;1.52;1.42;;;23.60;77.30;;;;;;4965347;28;20226;-75
2021/08/03 06:03:36;;;;;;;2.13;1.75;;;23.60;76.60;;;;;;4959948;28;20194;-75
2021/08/03 06:06:05;;;;;;;1.88;1.48;;;23.60;76.20;;;;;;4964462;28;20186;-77
2021/08/03 06:08:33;;;;;;;1.73;1.65;;;23.70;76.20;;;;;;4955978;28;20226;-77
2021/08/03 06:10:59;;;;;;;1.80;1.70;;;23.80;75.70;;;;;;4963715;28;20232;-77
2021/08/03 06:13:26;;;;;;;1.80;1.55;;;23.80;76.30;;;;;;4962036;28;20194;-76
2021/08/03 06:15:53;;;;;;;2.38;1.70;;;23.80;76.60;;;;;;4962455;28;20656;-75
2021/08/03 06:18:29;;;;;;;2.35;1.45;;;23.80;75.90;;;;;;4966974;28;20210;-76
2021/08/03 06:20:55;;;;;;;2.03;1.60;;;23.90;76.10;;;;;;4965995;28;20665;-76
2021/08/03 06:23:23;;;;;;;2.05;1.70;;;23.90;75.50;;;;;;4965981;28;20182;-76
2021/08/03 06:25:50;;;;;;;7.53;1.75;;;24.00;76.10;;;;;;4966170;28;20186;-76
2021/08/03 06:28:17;;;;;;;1.70;1.70;;;24.00;75.30;;;;;;4965924;28;20605;-76
2021/08/03 06:30:46;;;;;;;2.67;1.70;;;24.10;74.90;;;;;;4965326;28;20182;-76
2021/08/03 06:33:14;;;;;;;2.65;2.00;;;24.10;74.70;;;;;;4964508;28;20468;-76
2021/08/03 06:35:41;;;;;;;3.33;2.30;;;24.20;73.40;;;;;;4964374;28;20190;-75
2021/08/03 06:38:06;;;;;;;1.73;1.63;;;24.30;75.10;;;;;;4977241;28;20195;-75
2021/08/03 06:40:33;;;;;;;2.30;2.20;;;24.30;74.80;;;;;;4964694;28;20182;-76
2021/08/03 06:43:13;;;;;;;5.13;1.58;;;24.40;74.90;;;;;;4965038;28;20222;-76
2021/08/03 06:45:40;;;;;;;4.22;2.03;;;24.50;75.90;;;;;;4965178;28;20202;-76
2021/08/03 06:48:23;;;;;;;2.10;2.00;;;24.50;74.40;;;;;;4965975;28;20230;-76
2021/08/03 06:51:01;;;;;;;7.20;2.40;;;24.60;75.20;;;;;;4964811;28;20261;-77
2021/08/03 06:53:29;;;;;;;2.47;2.25;;;24.70;74.50;;;;;;4965284;28;20182;-77
2021/08/03 06:55:58;;;;;;;2.03;1.92;;;24.80;74.30;;;;;;4962411;28;20190;-76
2021/08/03 06:58:49;;;;;;;2.25;2.25;;;24.80;74.20;;;;;;4962621;28;20205;-76
2021/08/03 07:01:24;;;;;;;3.28;2.97;;;24.90;74.60;;;;;;4964862;28;20186;-76
2021/08/03 07:03:59;;;;;;;2.42;2.33;;;25.00;74.50;;;;;;4964235;28;20186;-76
2021/08/03 07:06:25;;;;;;;2.75;2.58;;;25.00;74.10;;;;;;4966555;28;20177;-76
2021/08/03 07:08:52;;;;;;;2.25;2.15;;;25.00;74.20;;;;;;4966138;28;20198;-76
2021/08/03 07:11:20;;;;;;;3.95;3.00;;;25.10;73.80;;;;;;4958551;28;20178;-76
2021/08/03 07:13:48;;;;;;;3.25;3.08;;;25.20;73.60;;;;;;4964749;28;20185;-76
2021/08/03 07:16:14;;;;;;;4.53;3.10;;;25.20;73.40;;;;;;4958662;28;20194;-76
2021/08/03 07:18:42;;;;;;;4.10;3.00;;;25.30;73.40;;;;;;4965017;28;20973;-75
2021/08/03 07:21:11;;;;;;;3.15;2.88;;;25.40;73.20;;;;;;4966000;28;20660;-76
2021/08/03 07:23:37;;;;;;;3.15;3.03;;;25.50;73.40;;;;;;4961703;28;20214;-76
2021/08/03 07:26:04;;;;;;;3.33;3.05;;;25.50;73.20;;;;;;4962733;28;20244;-76
2021/08/03 07:28:31;;;;;;;3.17;3.03;;;25.60;72.80;;;;;;4958452;28;20696;-76
2021/08/03 07:30:56;;;;;;;3.58;3.25;;;25.60;72.20;;;;;;4963219;28;20191;-76
2021/08/03 07:33:22;;;;;;;3.28;2.90;;;25.70;72.20;;;;;;4964413;28;20670;-76
2021/08/03 07:35:48;;;;;;;3.88;3.55;;;25.70;72.30;;;;;;4965392;28;20245;-75
2021/08/03 07:38:14;;;;;;;4.53;3.67;;;25.80;71.90;;;;;;4962631;28;20203;-75
2021/08/03 07:40:41;;;;;;;4.15;3.83;;;25.80;72.20;;;;;;4965890;28;20186;-77
2021/08/03 07:43:06;;;;;;;5.55;4.05;;;25.90;71.80;;;;;;4960228;28;20239;-76
2021/08/03 07:45:37;;;;;;;7.82;4.70;;;26.00;71.80;;;;;;4962375;28;20183;-76
2021/08/03 07:48:05;;;;;;;8.52;4.97;;;26.00;71.00;;;;;;4952496;28;20210;-75
2021/08/03 07:50:30;;;;;;;5.10;4.57;;;26.10;70.60;;;;;;4965678;28;20187;-75
2021/08/03 07:52:56;;;;;;;4.55;4.25;;;26.20;70.80;;;;;;4963069;28;20178;-75
2021/08/03 07:55:22;;;;;;;4.43;4.18;;;26.20;70.70;;;;;;4963254;28;20638;-75
2021/08/03 07:57:47;;;;;;;5.07;4.05;;;26.30;70.60;;;;;;4963933;28;20670;-76
2021/08/03 08:00:14;;;;;;;4.72;4.43;;;26.30;70.40;;;;;;4963089;28;20210;-74
2021/08/03 08:02:40;;;;;;;6.78;4.50;;;26.40;70.60;;;;;;4965291;28;20192;-75
2021/08/03 08:05:06;;;;;;;5.03;4.47;;;26.50;70.20;;;;;;4960905;28;20718;-74
2021/08/03 08:07:32;;;;;;;4.57;4.22;;;26.60;70.10;;;;;;4960722;28;20218;-77
2021/08/03 08:09:58;;;;;;;4.93;4.53;;;26.60;70.20;;;;;;4978701;28;20208;-77
2021/08/03 08:12:23;;;;;;;6.03;4.07;;;26.70;70.20;;;;;;4965042;28;20279;-77
2021/08/03 08:14:49;;;;;;;4.45;4.05;;;26.80;69.90;;;;;;4969076;28;20190;-76
2021/08/03 08:17:16;;;;;;;5.28;4.32;;;26.90;70.00;;;;;;4964971;28;20575;-76
2021/08/03 08:19:43;;;;;;;4.57;4.00;;;26.90;69.40;;;;;;4967109;28;20257;-76
2021/08/03 08:22:09;;;;;;;9.80;4.63;;;27.00;69.20;;;;;;4966115;28;20194;-75
2021/08/03 08:24:34;;;;;;;6.50;4.70;;;27.10;68.70;;;;;;4961699;28;20187;-75
2021/08/03 08:27:00;;;;;;;4.93;4.35;;;27.10;68.10;;;;;;4963417;28;20210;-74
2021/08/03 08:29:26;;;;;;;5.13;4.72;;;27.20;68.40;;;;;;4966320;28;20185;-74
2021/08/03 08:31:52;;;;;;;4.80;4.10;;;27.20;67.80;;;;;;4962440;28;20182;-74
2021/08/03 08:34:19;;;;;;;4.55;4.28;;;27.30;67.90;;;;;;4967928;28;20186;-74
2021/08/03 08:36:45;;;;;;;4.65;3.83;;;27.40;68.20;;;;;;4972583;28;20191;-76
2021/08/03 08:39:10;;;;;;;7.35;4.07;;;27.40;67.40;;;;;;4965644;28;20204;-76
2021/08/03 08:41:37;;;;;;;4.82;4.05;;;27.50;66.90;;;;;;4967399;28;20190;-78
2021/08/03 08:44:04;;;;;;;5.13;3.95;;;27.60;66.20;;;;;;4965519;28;20194;-77
2021/08/03 08:46:34;;;;;;;4.28;3.95;;;27.70;66.30;;;;;;4968145;28;20237;-76
2021/08/03 08:49:02;;;;;;;4.82;4.43;;;27.80;66.00;;;;;;4970989;28;20213;-75
2021/08/03 08:51:29;;;;;;;4.45;3.92;;;27.90;65.20;;;;;;4972364;28;20193;-75
2021/08/03 08:53:56;;;;;;;4.35;4.07;;;27.90;64.90;;;;;;4974505;28;20274;-75
2021/08/03 08:56:21;;;;;;;4.18;3.97;;;28.00;65.50;;;;;;4977124;28;20257;-76
2021/08/03 08:58:47;;;;;;;4.15;3.85;;;28.10;65.70;;;;;;4973459;28;20201;-75
2021/08/03 09:01:13;;;;;;;4.78;4.35;;;28.20;65.20;;;;;;4972313;28;20182;-75
2021/08/03 09:03:40;;;;;;;5.20;4.13;;;28.30;64.40;;;;;;4967255;28;20186;-75
2021/08/03 09:06:06;;;;;;;9.98;4.47;;;28.40;64.40;;;;;;4976743;28;20269;-76
2021/08/03 09:08:44;;;;;;;4.38;4.03;;;28.50;64.20;;;;;;4969520;28;20223;-73
2021/08/03 09:11:14;;;;;;;7.75;4.22;;;28.60;63.90;;;;;;4981365;28;20575;-76
2021/08/03 09:14:03;;;;;;;5.22;3.78;;;28.70;63.10;;;;;;4970878;28;20270;-75
2021/08/03 09:16:46;;;;;;;4.53;4.13;;;28.80;62.20;;;;;;4967454;28;20193;-75
2021/08/03 09:19:31;;;;;;;3.63;3.42;;;29.00;62.40;;;;;;4954628;28;20179;-74
2021/08/03 09:22:17;;;;;;;3.55;3.28;;;29.10;60.40;;;;;;4971825;28;20269;-75
2021/08/03 09:24:45;;;;;;;3.55;3.35;;;29.20;60.40;;;;;;4965098;28;20617;-74
2021/08/03 09:27:33;;;;;;;7.50;3.40;;;29.40;60.30;;;;;;4966794;28;20802;-75
2021/08/03 09:29:59;;;;;;;3.47;3.28;;;29.50;58.30;;;;;;4964338;28;20358;-75
2021/08/03 09:32:36;;;;;;;2.90;2.80;;;29.70;59.10;;;;;;4966700;28;20625;-74
2021/08/03 09:35:09;;;;;;;3.95;3.03;;;29.80;56.90;;;;;;4965574;28;20189;-74
2021/08/03 09:37:36;;;;;;;2.97;2.78;;;30.00;57.50;;;;;;4965959;28;20191;-74
2021/08/03 09:40:04;;;;;;;4.30;2.83;;;30.20;56.20;;;;;;4967286;28;20272;-73
2021/08/03 09:42:30;;;;;;;5.05;2.70;;;30.40;55.20;;;;;;4965938;28;20261;-73
2021/08/03 09:45:00;;;;;;;2.78;2.58;;;30.60;54.80;;;;;;4964667;28;20586;-74
2021/08/03 09:47:32;;;;;;;2.95;2.47;;;30.90;55.10;;;;;;4961363;28;20575;-73
2021/08/03 09:49:59;;;;;;;2.00;1.90;;;31.20;52.70;;;;;;4948445;28;20198;-74
2021/08/03 09:52:30;;;;;;;2.05;1.88;;;31.50;51.80;;;;;;4961175;28;20672;-75
2021/08/03 09:55:14;;;;;;;2.30;2.17;;;31.90;51.50;;;;;;4955708;28;20772;-73
2021/08/03 09:57:41;;;;;;;3.00;2.80;;;32.20;51.10;;;;;;4965556;28;20201;-73
2021/08/03 10:00:34;;;;;;;2.55;2.45;;;32.50;52.90;;;;;;4964842;28;20186;-74
2021/08/03 10:03:01;;;;;;;2.33;2.22;;;32.90;50.10;;;;;;4955361;28;20656;-74
2021/08/03 10:05:27;;;;;;;3.70;2.47;;;33.40;49.90;;;;;;4949304;28;20210;-75
2021/08/03 10:07:55;;;;;;;2.42;2.42;;;33.80;48.90;;;;;;4956805;28;20202;-73
2021/08/03 10:10:21;;;;;;;2.83;2.53;;;34.40;49.00;;;;;;4964739;28;20214;-74
2021/08/03 10:12:47;;;;;;;2.67;2.58;;;34.90;49.20;;;;;;4956252;28;20181;-73
2021/08/03 10:15:13;;;;;;;2.90;2.80;;;35.40;47.90;;;;;;4966181;28;20252;-75
2021/08/03 10:17:39;;;;;;;3.33;3.13;;;35.90;48.60;;;;;;4966190;28;20178;-75
2021/08/03 10:20:09;;;;;;;2.90;2.75;;;36.60;47.90;;;;;;4966383;28;20268;-73
2021/08/03 10:22:40;;;;;;;3.13;2.80;;;37.20;48.10;;;;;;4961292;28;20257;-73
2021/08/03 10:25:13;;;;;;;2.85;2.70;;;37.70;45.20;;;;;;4965966;28;20197;-74
2021/08/03 10:27:51;;;;;;;3.58;2.55;;;38.30;45.30;;;;;;4957989;28;20197;-73
2021/08/03 10:30:29;;;;;;;2.88;2.67;;;38.80;46.10;;;;;;4964006;28;20186;-72
2021/08/03 10:32:57;;;;;;;3.72;2.38;;;39.20;42.60;;;;;;4966192;28;20574;-74
2021/08/03 10:35:45;;;;;;;2.78;2.67;;;39.60;42.20;;;;;;4965373;28;20170;-73
2021/08/03 10:38:21;;;;;;;5.22;2.58;;;40.00;41.80;;;;;;4961495;28;20278;-73
2021/08/03 10:40:57;;;;;;;3.20;3.00;;;40.50;42.70;;;;;;4965824;28;20213;-73
2021/08/03 10:43:32;;;;;;;2.60;2.40;;;40.90;41.90;;;;;;4966012;28;20187;-73
2021/08/03 10:46:07;;;;;;;3.30;2.65;;;41.20;42.50;;;;;;4959378;28;20964;-73
2021/08/03 10:48:38;;;;;;;3.25;2.67;;;41.50;40.70;;;;;;4959269;28;20665;-73
2021/08/03 10:51:16;;;;;;;2.72;2.50;;;41.60;41.40;;;;;;4956737;28;20228;-74
2021/08/03 10:54:04;;;;;;;2.72;2.60;;;41.80;41.10;;;;;;4964491;28;20178;-73
2021/08/03 10:56:58;;;;;;;2.53;2.30;;;42.30;39.50;;;;;;4959648;28;20565;-74
2021/08/03 10:59:33;;;;;;;2.90;2.80;;;42.70;39.70;;;;;;4965386;28;20261;-73
2021/08/03 11:02:00;;;;;;;3.13;2.92;;;42.70;41.00;;;;;;4967833;28;20650;-74
2021/08/03 11:04:48;;;;;;;2.72;2.55;;;42.80;41.50;;;;;;4959564;28;20575;-73
2021/08/03 11:07:30;;;;;;;2.88;2.70;;;43.00;39.50;;;;;;4965671;28;20197;-74
2021/08/03 11:09:59;;;;;;;3.33;3.03;;;43.30;39.60;;;;;;4963863;28;20267;-73
2021/08/03 11:12:38;;;;;;;3.42;2.65;;;43.40;42.00;;;;;;4963878;28;20215;-73
2021/08/03 11:15:22;;;;;;;3.10;3.00;;;43.50;39.40;;;;;;4965306;28;20190;-73
2021/08/03 11:18:01;;;;;;;3.60;2.97;;;43.70;38.50;;;;;;4959564;28;20208;-74
2021/08/03 11:20:36;;;;;;;3.38;3.05;;;43.10;39.20;;;;;;4960427;28;20185;-74
2021/08/03 11:23:16;;;;;;;3.38;3.17;;;42.50;39.30;;;;;;4962194;28;20189;-74
2021/08/03 11:25:47;;;;;;;3.30;3.08;;;42.40;39.80;;;;;;4965244;28;20178;-74
2021/08/03 11:28:21;;;;;;;3.22;3.10;;;42.50;40.70;;;;;;4965034;28;20236;-74
2021/08/03 11:30:49;;;;;;;2.92;2.83;;;42.00;40.00;;;;;;4957716;28;20213;-74
2021/08/03 11:33:17;;;;;;;2.50;2.40;;;41.60;41.80;;;;;;4964396;28;20241;-74
2021/08/03 11:35:43;;;;;;;3.22;2.88;;;41.40;41.30;;;;;;4965456;28;20837;-74
2021/08/03 11:38:11;;;;;;;2.92;2.72;;;41.50;41.10;;;;;;4962625;28;20185;-74
2021/08/03 11:40:38;;;;;;;2.90;2.80;;;41.90;41.40;;;;;;4960158;28;20174;-74
2021/08/03 11:43:06;;;;;;;3.50;2.78;;;42.20;41.10;;;;;;4965594;28;20556;-74
2021/08/03 11:45:36;;;;;;;2.97;2.47;;;42.80;40.90;;;;;;5001223;28;20192;-73
2021/08/03 11:48:03;;;;;;;3.72;2.50;;;43.40;40.60;;;;;;4993238;28;20213;-74
2021/08/03 11:50:29;;;;;;;2.70;2.50;;;43.90;39.90;;;;;;5000513;28;20180;-74
2021/08/03 11:53:03;;;;;;;3.33;3.13;;;44.40;40.40;;;;;;4999695;28;20207;-73
2021/08/03 11:55:29;;;;;;;3.38;2.63;;;44.80;39.20;;;;;;5003957;28;20188;-74
2021/08/03 11:57:55;;;;;;;2.70;2.60;;;45.30;39.80;;;;;;5000193;28;20199;-74
2021/08/03 12:00:22;;;;;;;3.30;2.90;;;45.70;39.40;;;;;;5000712;28;20293;-75
2021/08/03 12:02:56;;;;;;;2.47;2.38;;;46.10;39.40;;;;;;5006548;28;20235;-74
2021/08/03 12:05:26;;;;;;;3.15;2.95;;;46.50;38.70;;;;;;5005725;28;20188;-73
2021/08/03 12:08:01;;;;;;;3.33;2.92;;;46.90;39.30;;;;;;5006968;28;20274;-73
2021/08/03 12:10:34;;;;;;;4.20;2.72;;;47.30;38.30;;;;;;4998023;28;20204;-72
2021/08/03 12:13:00;;;;;;;4.47;2.63;;;47.50;38.50;;;;;;5001989;28;20254;-72
2021/08/03 12:15:27;;;;;;;2.63;2.53;;;47.70;38.10;;;;;;5007075;28;20172;-73
2021/08/03 12:18:09;;;;;;;5.50;2.50;;;47.70;38.60;;;;;;4998809;28;21102;-73
2021/08/03 12:20:41;;;;;;;2.95;2.60;;;47.70;36.50;;;;;;4984908;28;20189;-73
2021/08/03 12:23:21;;;;;;;3.17;2.78;;;47.70;37.60;;;;;;4997388;28;20224;-72
2021/08/03 12:26:08;;;;;;;2.72;2.53;;;47.70;36.80;;;;;;4997712;28;20184;-72
2021/08/03 12:28:37;;;;;;;2.78;2.67;;;47.90;36.50;;;;;;4992131;28;20235;-72
2021/08/03 12:31:28;;;;;;;4.75;2.78;;;48.10;38.30;;;;;;4990580;28;20177;-72
2021/08/03 12:34:09;;;;;;;2.20;2.20;;;48.30;35.90;;;;;;4997570;28;20248;-73
2021/08/03 12:36:52;;;;;;;4.90;2.72;;;48.50;37.60;;;;;;4976410;28;21367;-72
2021/08/03 12:39:23;;;;;;;2.88;2.67;;;48.80;36.00;;;;;;5003431;28;20302;-72
2021/08/03 12:42:02;;;;;;;2.28;2.17;;;48.80;37.50;;;;;;5000741;28;20345;-72
2021/08/03 12:44:31;;;;;;;2.85;2.60;;;48.80;35.10;;;;;;4995670;28;20195;-72
2021/08/03 12:47:13;;;;;;;2.42;2.33;;;48.90;36.30;;;;;;4994588;28;20271;-72
2021/08/03 12:49:41;;;;;;;2.90;2.40;;;48.90;35.20;;;;;;4999270;28;20201;-72
2021/08/03 12:52:07;;;;;;;3.40;2.58;;;48.80;36.90;;;;;;4996898;28;20512;-72
2021/08/03 12:54:34;;;;;;;2.63;2.47;;;48.70;37.00;;;;;;4995203;28;20236;-72
2021/08/03 12:57:00;;;;;;;2.50;2.35;;;48.70;36.90;;;;;;4993941;28;20200;-72
2021/08/03 12:59:39;;;;;;;3.75;2.78;;;48.70;37.40;;;;;;5002451;28;20183;-73
2021/08/03 13:02:06;;;;;;;2.50;2.40;;;48.40;36.10;;;;;;5002413;28;20271;-72